Time;durP1;ratioP1;P1;durP2;ratioP2;P2;SDS_P1;SDS_P2;PMS_P1;PMS_P2;Temp;Humidity;BMP_temperature;BMP_pressure;BME280_temperature;BME280_humidity;BME280_pressure;Samples;Min_cycle;Max_cycle;Signal;HPM_P1;HPM_P2
2023/10/28 00:01:12;;;;;;;26.85;12.93;;;;;;;;;;4898036;29;20545;-54
2023/10/28 00:03:41;;;;;;;24.25;13.43;;;;;;;;;;4897930;29;20209;-54
2023/10/28 00:06:08;;;;;;;24.60;12.63;;;;;;;;;;4898151;29;20217;-55
2023/10/28 00:08:36;;;;;;;23.17;12.73;;;;;;;;;;4898059;29;20359;-55
2023/10/28 00:11:04;;;;;;;23.50;12.82;;;;;;;;;;4897786;29;20759;-57
2023/10/28 00:13:31;;;;;;;23.80;12.45;;;;;;;;;;4897690;29;20214;-53
2023/10/28 00:15:58;;;;;;;26.10;12.23;;;;;;;;;;4896277;29;20213;-53
2023/10/28 00:18:26;;;;;;;22.33;12.20;;;;;;;;;;4897546;29;20224;-53
2023/10/28 00:20:55;;;;;;;22.85;12.25;;;;;;;;;;4897431;29;20209;-55
2023/10/28 00:23:25;;;;;;;20.60;11.00;;;;;;;;;;4897753;29;20197;-52
2023/10/28 00:26:00;;;;;;;19.27;10.85;;;;;;;;;;4897751;29;20228;-54
2023/10/28 00:28:27;;;;;;;23.63;11.80;;;;;;;;;;4897709;29;20232;-55
2023/10/28 00:30:54;;;;;;;21.63;11.02;;;;;;;;;;4896007;29;20215;-51
2023/10/28 00:33:23;;;;;;;21.45;11.50;;;;;;;;;;4895660;29;20210;-51
2023/10/28 00:35:50;;;;;;;19.92;11.35;;;;;;;;;;4896233;29;20206;-53
2023/10/28 00:38:17;;;;;;;22.90;12.02;;;;;;;;;;4896163;29;20236;-57
2023/10/28 00:40:44;;;;;;;20.60;11.27;;;;;;;;;;4896978;29;20205;-51
2023/10/28 00:43:12;;;;;;;21.52;11.38;;;;;;;;;;4896042;29;20206;-56
2023/10/28 00:45:40;;;;;;;20.17;11.00;;;;;;;;;;4895726;29;20213;-51
2023/10/28 00:48:07;;;;;;;20.38;10.38;;;;;;;;;;4896010;29;20198;-55
2023/10/28 00:50:34;;;;;;;16.02;9.15;;;;;;;;;;4897174;29;20399;-53
2023/10/28 00:53:02;;;;;;;15.75;8.30;;;;;;;;;;4896808;29;20672;-54
2023/10/28 00:55:30;;;;;;;14.45;7.53;;;;;;;;;;4897104;29;20670;-54
2023/10/28 00:57:59;;;;;;;12.95;7.53;;;;;;;;;;4896855;29;20213;-53
2023/10/28 01:00:26;;;;;;;12.00;6.47;;;;;;;;;;4895569;29;20205;-53
2023/10/28 01:02:53;;;;;;;15.75;6.80;;;;;;;;;;4896900;29;20221;-51
2023/10/28 01:05:22;;;;;;;12.88;6.30;;;;;;;;;;4897065;29;20525;-53
2023/10/28 01:07:50;;;;;;;11.80;5.38;;;;;;;;;;4897094;29;20210;-51
2023/10/28 01:10:33;;;;;;;8.70;5.07;;;;;;;;;;4896917;29;20254;-54
2023/10/28 01:13:04;;;;;;;6.40;3.47;;;;;;;;;;4897009;29;20186;-52
2023/10/28 01:15:31;;;;;;;6.47;3.40;;;;;;;;;;4896791;29;20276;-53
2023/10/28 01:17:58;;;;;;;3.80;2.53;;;;;;;;;;4896871;29;20235;-51
2023/10/28 01:20:26;;;;;;;4.50;2.53;;;;;;;;;;4896596;29;20213;-53
2023/10/28 01:22:53;;;;;;;5.30;2.40;;;;;;;;;;4895540;29;20205;-53
2023/10/28 01:25:20;;;;;;;4.18;2.35;;;;;;;;;;4896536;29;20288;-55
2023/10/28 01:27:49;;;;;;;4.00;2.55;;;;;;;;;;4895423;29;20571;-54
2023/10/28 01:30:16;;;;;;;6.03;2.17;;;;;;;;;;4896686;29;20233;-50
2023/10/28 01:32:44;;;;;;;2.47;1.90;;;;;;;;;;4895251;29;20805;-52
2023/10/28 01:35:13;;;;;;;2.40;1.60;;;;;;;;;;4896601;29;20202;-54
2023/10/28 01:37:41;;;;;;;4.07;1.92;;;;;;;;;;4896339;29;20578;-51
2023/10/28 01:40:17;;;;;;;3.92;2.20;;;;;;;;;;4895211;29;20213;-52
2023/10/28 01:42:45;;;;;;;3.20;1.95;;;;;;;;;;4895500;29;20257;-54
2023/10/28 01:45:14;;;;;;;5.15;2.22;;;;;;;;;;4898459;29;20201;-54
2023/10/28 01:47:42;;;;;;;5.10;2.70;;;;;;;;;;4900153;29;20217;-56
2023/10/28 01:50:13;;;;;;;4.93;2.35;;;;;;;;;;4898883;29;20320;-53
2023/10/28 01:52:42;;;;;;;3.78;2.53;;;;;;;;;;4900348;29;20197;-55
2023/10/28 01:55:11;;;;;;;3.72;2.45;;;;;;;;;;4898818;29;20234;-55
2023/10/28 01:57:39;;;;;;;5.28;2.80;;;;;;;;;;4900187;29;20217;-54
2023/10/28 02:00:12;;;;;;;5.13;2.63;;;;;;;;;;4899016;29;20209;-52
2023/10/28 02:02:45;;;;;;;4.43;2.90;;;;;;;;;;4899962;29;20257;-56
2023/10/28 02:05:15;;;;;;;5.60;3.45;;;;;;;;;;4899134;29;20198;-54
2023/10/28 02:07:43;;;;;;;3.45;2.50;;;;;;;;;;4900250;29;20208;-54
2023/10/28 02:10:10;;;;;;;5.32;2.90;;;;;;;;;;4899638;29;20738;-53
2023/10/28 02:12:38;;;;;;;4.30;2.88;;;;;;;;;;4898697;29;20221;-55
2023/10/28 02:15:07;;;;;;;4.75;3.03;;;;;;;;;;4898712;29;20276;-53
2023/10/28 02:17:38;;;;;;;6.63;3.20;;;;;;;;;;4898421;29;20206;-51
2023/10/28 02:20:06;;;;;;;4.80;2.90;;;;;;;;;;4898727;29;20289;-49
2023/10/28 02:22:35;;;;;;;5.88;3.05;;;;;;;;;;4898576;29;20237;-55
2023/10/28 02:25:03;;;;;;;6.32;3.17;;;;;;;;;;4899554;29;20256;-52
2023/10/28 02:27:31;;;;;;;5.00;3.08;;;;;;;;;;4899597;29;20552;-56
2023/10/28 02:29:58;;;;;;;5.53;3.35;;;;;;;;;;4898124;29;20745;-54
2023/10/28 02:32:26;;;;;;;5.70;3.70;;;;;;;;;;4899494;29;20205;-54
2023/10/28 02:34:54;;;;;;;7.53;3.63;;;;;;;;;;4897532;29;20205;-53
2023/10/28 02:37:22;;;;;;;5.30;3.55;;;;;;;;;;4897571;29;20209;-55
2023/10/28 02:39:49;;;;;;;6.10;3.60;;;;;;;;;;4898841;29;20209;-56
2023/10/28 02:42:17;;;;;;;8.82;4.22;;;;;;;;;;4898661;29;20624;-54
2023/10/28 02:44:44;;;;;;;9.10;4.65;;;;;;;;;;4898401;29;20576;-54
2023/10/28 02:47:11;;;;;;;7.93;3.90;;;;;;;;;;4897411;29;20205;-54
2023/10/28 02:49:38;;;;;;;7.70;4.20;;;;;;;;;;4898435;29;20593;-55
2023/10/28 02:52:05;;;;;;;8.60;4.63;;;;;;;;;;4898456;29;20209;-55
2023/10/28 02:54:34;;;;;;;7.78;4.20;;;;;;;;;;4897312;29;20237;-55
2023/10/28 02:57:01;;;;;;;5.30;3.47;;;;;;;;;;4897693;29;20213;-54
2023/10/28 02:59:28;;;;;;;6.07;3.85;;;;;;;;;;4898334;29;20663;-55
2023/10/28 03:01:57;;;;;;;7.07;3.55;;;;;;;;;;4897671;29;20283;-50
2023/10/28 03:04:24;;;;;;;6.28;3.58;;;;;;;;;;4898067;29;20240;-53
2023/10/28 03:06:52;;;;;;;7.35;3.42;;;;;;;;;;4898748;29;20205;-51
2023/10/28 03:09:19;;;;;;;5.10;3.47;;;;;;;;;;4898891;29;20229;-53
2023/10/28 03:11:46;;;;;;;6.53;3.78;;;;;;;;;;4897547;29;20307;-51
2023/10/28 03:14:13;;;;;;;9.63;4.15;;;;;;;;;;4898884;29;20229;-56
2023/10/28 03:16:41;;;;;;;8.88;4.22;;;;;;;;;;4898701;29;20826;-52
2023/10/28 03:19:11;;;;;;;8.07;4.15;;;;;;;;;;4898646;29;20607;-51
2023/10/28 03:21:39;;;;;;;6.60;3.83;;;;;;;;;;4898608;29;20201;-52
2023/10/28 03:24:07;;;;;;;8.43;4.30;;;;;;;;;;4898519;29;20274;-52
2023/10/28 03:26:34;;;;;;;8.15;4.22;;;;;;;;;;4897438;29;20654;-56
2023/10/28 03:29:01;;;;;;;7.82;3.92;;;;;;;;;;4898508;29;20212;-50
2023/10/28 03:31:30;;;;;;;6.45;4.00;;;;;;;;;;4898100;29;20264;-53
2023/10/28 03:33:57;;;;;;;7.72;4.50;;;;;;;;;;4897045;29;20206;-53
2023/10/28 03:36:25;;;;;;;7.70;4.20;;;;;;;;;;4895632;29;20217;-52
2023/10/28 03:38:52;;;;;;;8.60;4.18;;;;;;;;;;4896532;29;20233;-54
2023/10/28 03:41:20;;;;;;;7.18;4.13;;;;;;;;;;4896954;29;20726;-52
2023/10/28 03:43:47;;;;;;;7.43;3.80;;;;;;;;;;4896928;29;20210;-50
2023/10/28 03:46:18;;;;;;;7.03;4.63;;;;;;;;;;4897040;29;20571;-55
2023/10/28 03:48:45;;;;;;;7.47;4.60;;;;;;;;;;4897437;29;20288;-50
2023/10/28 03:51:16;;;;;;;6.90;4.32;;;;;;;;;;4897876;29;20233;-51
2023/10/28 03:53:43;;;;;;;5.95;3.92;;;;;;;;;;4898105;29;20263;-49
2023/10/28 03:56:10;;;;;;;8.85;4.50;;;;;;;;;;4897964;29;20567;-52
2023/10/28 03:58:37;;;;;;;7.95;4.15;;;;;;;;;;4898177;29;20236;-50
2023/10/28 04:01:05;;;;;;;4.90;3.63;;;;;;;;;;4897798;29;20619;-51
2023/10/28 04:03:33;;;;;;;6.32;3.72;;;;;;;;;;4897541;29;20201;-54
2023/10/28 04:06:00;;;;;;;6.38;3.58;;;;;;;;;;4898318;29;20564;-53
2023/10/28 04:08:31;;;;;;;6.75;4.00;;;;;;;;;;4897268;29;20242;-53
2023/10/28 04:10:58;;;;;;;6.15;4.00;;;;;;;;;;4897571;29;20713;-53
2023/10/28 04:13:25;;;;;;;5.35;3.10;;;;;;;;;;4897924;29;20209;-51
2023/10/28 04:15:52;;;;;;;6.47;3.90;;;;;;;;;;4897552;29;20238;-54
2023/10/28 04:18:19;;;;;;;5.38;3.65;;;;;;;;;;4897709;29;20216;-53
2023/10/28 04:20:48;;;;;;;9.30;3.60;;;;;;;;;;4897784;29;20213;-55
2023/10/28 04:23:15;;;;;;;4.65;3.58;;;;;;;;;;4897589;29;20217;-51
2023/10/28 04:25:42;;;;;;;7.43;3.60;;;;;;;;;;4897292;29;20616;-52
2023/10/28 04:28:09;;;;;;;5.93;3.92;;;;;;;;;;4897776;29;20752;-51
2023/10/28 04:30:37;;;;;;;5.82;3.80;;;;;;;;;;4897165;29;20233;-52
2023/10/28 04:33:05;;;;;;;6.18;3.53;;;;;;;;;;4897246;29;20209;-54
2023/10/28 04:35:32;;;;;;;7.30;4.18;;;;;;;;;;4897122;29;20209;-53
2023/10/28 04:37:59;;;;;;;6.28;4.07;;;;;;;;;;4896470;29;20213;-51
2023/10/28 04:40:26;;;;;;;6.65;4.25;;;;;;;;;;4897367;29;20217;-54
2023/10/28 04:42:54;;;;;;;5.80;4.20;;;;;;;;;;4897193;29;20318;-51
2023/10/28 04:45:21;;;;;;;6.97;4.57;;;;;;;;;;4896935;29;20213;-51
2023/10/28 04:47:50;;;;;;;5.63;3.90;;;;;;;;;;4897009;29;20663;-54
2023/10/28 04:50:18;;;;;;;6.18;3.42;;;;;;;;;;4896833;29;20229;-51
2023/10/28 04:52:45;;;;;;;6.93;4.07;;;;;;;;;;4896928;29;20201;-55
2023/10/28 04:55:13;;;;;;;5.85;4.13;;;;;;;;;;4897085;29;20229;-54
2023/10/28 04:57:41;;;;;;;6.93;4.30;;;;;;;;;;4896632;29;20228;-55
2023/10/28 05:00:09;;;;;;;5.75;3.95;;;;;;;;;;4896605;29;20213;-56
2023/10/28 05:02:36;;;;;;;6.82;4.47;;;;;;;;;;4896522;29;20209;-55
2023/10/28 05:05:04;;;;;;;7.60;4.38;;;;;;;;;;4896584;29;20547;-54
2023/10/28 05:07:33;;;;;;;6.05;4.05;;;;;;;;;;4896258;29;20205;-53
2023/10/28 05:10:02;;;;;;;7.65;4.18;;;;;;;;;;4896377;29;20244;-55
2023/10/28 05:12:31;;;;;;;5.57;4.05;;;;;;;;;;4896873;29;20612;-51
2023/10/28 05:14:59;;;;;;;6.28;4.38;;;;;;;;;;4896695;29;20205;-55
2023/10/28 05:17:26;;;;;;;5.25;3.85;;;;;;;;;;4896533;29;20578;-50
2023/10/28 05:19:53;;;;;;;5.85;3.80;;;;;;;;;;4896515;29;20245;-53
2023/10/28 05:22:20;;;;;;;6.10;4.38;;;;;;;;;;4896402;29;20205;-50
2023/10/28 05:24:48;;;;;;;9.45;4.13;;;;;;;;;;4896502;29;20269;-51
2023/10/28 05:27:15;;;;;;;7.22;4.25;;;;;;;;;;4896815;29;20213;-54
2023/10/28 05:29:42;;;;;;;6.95;4.05;;;;;;;;;;4896620;29;20209;-49
2023/10/28 05:32:09;;;;;;;7.93;4.85;;;;;;;;;;4896379;29;20208;-50
2023/10/28 05:34:36;;;;;;;7.57;4.35;;;;;;;;;;4896573;29;20261;-53
2023/10/28 05:37:05;;;;;;;8.10;4.75;;;;;;;;;;4878488;29;20241;-51
2023/10/28 05:39:33;;;;;;;10.15;4.03;;;;;;;;;;4899244;29;20221;-54
2023/10/28 05:42:00;;;;;;;9.10;4.03;;;;;;;;;;4895178;29;20257;-53
2023/10/28 05:44:27;;;;;;;6.53;3.92;;;;;;;;;;4893350;29;20217;-53
2023/10/28 05:46:55;;;;;;;6.32;3.85;;;;;;;;;;4895013;29;20229;-54
2023/10/28 05:49:22;;;;;;;6.30;3.97;;;;;;;;;;4892339;29;20230;-57
2023/10/28 05:51:49;;;;;;;8.13;4.47;;;;;;;;;;4896213;29;20244;-51
2023/10/28 05:54:17;;;;;;;6.78;3.92;;;;;;;;;;4895676;29;20249;-51
2023/10/28 05:56:44;;;;;;;5.38;3.50;;;;;;;;;;4895450;29;20253;-52
2023/10/28 05:59:12;;;;;;;6.80;3.92;;;;;;;;;;4895140;29;20225;-51
2023/10/28 06:01:39;;;;;;;6.10;3.83;;;;;;;;;;4895322;29;20289;-56
2023/10/28 06:04:07;;;;;;;7.38;4.40;;;;;;;;;;4895574;29;20229;-55
2023/10/28 06:06:34;;;;;;;6.55;3.88;;;;;;;;;;4894736;29;20244;-56
2023/10/28 06:09:01;;;;;;;6.47;3.97;;;;;;;;;;4896065;29;20572;-51
2023/10/28 06:11:29;;;;;;;6.90;4.13;;;;;;;;;;4895438;29;20249;-52
2023/10/28 06:13:56;;;;;;;8.20;4.68;;;;;;;;;;4895881;29;20230;-50
2023/10/28 06:16:25;;;;;;;8.85;4.82;;;;;;;;;;4895738;29;20232;-52
2023/10/28 06:18:52;;;;;;;9.45;4.68;;;;;;;;;;4894229;29;20213;-54
2023/10/28 06:21:19;;;;;;;8.10;4.30;;;;;;;;;;4894659;29;20602;-54
2023/10/28 06:23:47;;;;;;;6.45;3.80;;;;;;;;;;4895471;29;20225;-51
2023/10/28 06:26:15;;;;;;;8.80;4.38;;;;;;;;;;4895760;29;20238;-51
2023/10/28 06:28:44;;;;;;;11.88;6.07;;;;;;;;;;4895448;29;20240;-54
2023/10/28 06:31:12;;;;;;;9.38;5.47;;;;;;;;;;4894626;29;20301;-52
2023/10/28 06:33:39;;;;;;;9.38;5.40;;;;;;;;;;4897722;29;20248;-54
2023/10/28 06:36:08;;;;;;;8.23;4.80;;;;;;;;;;4896259;29;20221;-53
2023/10/28 06:38:36;;;;;;;10.18;4.97;;;;;;;;;;4895246;29;20245;-54
2023/10/28 06:41:03;;;;;;;9.60;5.53;;;;;;;;;;4895009;29;20237;-54
2023/10/28 06:43:30;;;;;;;10.55;5.90;;;;;;;;;;4895587;29;20583;-53
2023/10/28 06:45:58;;;;;;;12.38;5.47;;;;;;;;;;4894915;29;20250;-53
2023/10/28 06:48:25;;;;;;;15.98;6.43;;;;;;;;;;4895658;29;20321;-53
2023/10/28 06:50:52;;;;;;;10.40;5.95;;;;;;;;;;4893570;29;20571;-50
2023/10/28 06:53:21;;;;;;;9.80;6.13;;;;;;;;;;4879832;29;20246;-50
2023/10/28 06:55:49;;;;;;;10.32;6.05;;;;;;;;;;4879861;29;20290;-53
2023/10/28 06:58:16;;;;;;;10.50;6.07;;;;;;;;;;4885173;29;20289;-50
2023/10/28 07:00:43;;;;;;;11.50;5.75;;;;;;;;;;4898171;29;20326;-51
2023/10/28 07:03:14;;;;;;;8.63;5.85;;;;;;;;;;4898455;29;20233;-50
2023/10/28 07:05:41;;;;;;;10.27;6.00;;;;;;;;;;4898060;29;20236;-55
2023/10/28 07:08:08;;;;;;;11.05;6.03;;;;;;;;;;4898586;29;20290;-51
2023/10/28 07:10:37;;;;;;;10.60;5.50;;;;;;;;;;4898650;29;20240;-55
2023/10/28 07:13:04;;;;;;;14.50;5.13;;;;;;;;;;4898340;29;20601;-52
2023/10/28 07:15:31;;;;;;;8.27;5.57;;;;;;;;;;4898654;29;20230;-52
2023/10/28 07:17:58;;;;;;;10.50;6.30;;;;;;;;;;4898103;29;20317;-52
2023/10/28 07:20:28;;;;;;;9.63;4.80;;;;;;;;;;4897884;29;20237;-53
2023/10/28 07:22:55;;;;;;;8.35;5.10;;;;;;;;;;4896884;29;20241;-55
2023/10/28 07:25:22;;;;;;;6.28;4.50;;;;;;;;;;4898237;29;20233;-52
2023/10/28 07:27:49;;;;;;;8.88;3.90;;;;;;;;;;4897961;29;20225;-50
2023/10/28 07:30:16;;;;;;;6.28;3.22;;;;;;;;;;4897879;29;20230;-49
2023/10/28 07:32:44;;;;;;;5.80;3.53;;;;;;;;;;4897750;29;20229;-50
2023/10/28 07:35:11;;;;;;;5.40;4.30;;;;;;;;;;4896988;29;20226;-51
2023/10/28 07:37:38;;;;;;;4.95;3.20;;;;;;;;;;4897462;29;20237;-50
2023/10/28 07:40:06;;;;;;;5.35;3.47;;;;;;;;;;4896427;29;20237;-50
2023/10/28 07:42:34;;;;;;;5.57;3.45;;;;;;;;;;4896670;29;20284;-53
2023/10/28 07:45:02;;;;;;;4.97;2.47;;;;;;;;;;4897845;29;20233;-51
2023/10/28 07:47:30;;;;;;;2.83;2.05;;;;;;;;;;4898254;29;20238;-50
2023/10/28 07:49:57;;;;;;;3.17;1.77;;;;;;;;;;4897531;29;20233;-51
2023/10/28 07:52:24;;;;;;;3.40;2.38;;;;;;;;;;4882451;29;20249;-55
2023/10/28 07:54:51;;;;;;;4.10;2.40;;;;;;;;;;4878757;29;20249;-50
2023/10/28 07:57:19;;;;;;;3.38;2.42;;;;;;;;;;4878739;29;20276;-52
2023/10/28 07:59:46;;;;;;;4.05;2.28;;;;;;;;;;4878807;29;20321;-51
2023/10/28 08:02:15;;;;;;;2.95;1.98;;;;;;;;;;4878871;29;20254;-50
2023/10/28 08:04:43;;;;;;;3.30;2.15;;;;;;;;;;4878402;29;20733;-50
2023/10/28 08:07:11;;;;;;;4.25;2.15;;;;;;;;;;4878487;29;20723;-50
2023/10/28 08:09:38;;;;;;;3.90;2.38;;;;;;;;;;4878705;29;20321;-50
2023/10/28 08:12:06;;;;;;;4.05;2.70;;;;;;;;;;4878764;29;20238;-50
2023/10/28 08:14:34;;;;;;;3.85;2.42;;;;;;;;;;4878350;29;20328;-52
2023/10/28 08:17:01;;;;;;;4.82;2.97;;;;;;;;;;4878600;29;20234;-57
2023/10/28 08:19:29;;;;;;;6.10;3.80;;;;;;;;;;4883524;29;20236;-54
2023/10/28 08:21:58;;;;;;;5.35;2.70;;;;;;;;;;4895777;29;20734;-55
2023/10/28 08:24:25;;;;;;;9.68;6.00;;;;;;;;;;4896914;29;20293;-50
2023/10/28 08:26:52;;;;;;;6.20;3.42;;;;;;;;;;4896579;29;20244;-50
2023/10/28 08:29:19;;;;;;;5.22;3.47;;;;;;;;;;4896701;29;20710;-52
2023/10/28 08:31:48;;;;;;;4.15;3.03;;;;;;;;;;4896507;29;20248;-51
2023/10/28 08:34:15;;;;;;;3.92;2.13;;;;;;;;;;4896445;29;20267;-56
2023/10/28 08:36:42;;;;;;;2.35;1.70;;;;;;;;;;4896880;29;20225;-50
2023/10/28 08:39:10;;;;;;;3.30;2.10;;;;;;;;;;4896694;29;20702;-51
2023/10/28 08:41:37;;;;;;;3.08;2.00;;;;;;;;;;4895186;29;20243;-50
2023/10/28 08:44:06;;;;;;;3.65;2.30;;;;;;;;;;4896424;29;20591;-50
2023/10/28 08:46:37;;;;;;;4.75;2.50;;;;;;;;;;4895132;29;20624;-55
2023/10/28 08:49:04;;;;;;;7.28;2.90;;;;;;;;;;4896255;29;20316;-51
2023/10/28 08:51:33;;;;;;;3.63;2.08;;;;;;;;;;4894712;29;20631;-55
2023/10/28 08:54:02;;;;;;;3.60;1.80;;;;;;;;;;4896030;29;20296;-50
2023/10/28 08:56:32;;;;;;;3.75;1.90;;;;;;;;;;4896043;29;20233;-55
2023/10/28 08:58:59;;;;;;;3.10;1.63;;;;;;;;;;4894707;29;20225;-53
2023/10/28 09:01:28;;;;;;;2.45;1.80;;;;;;;;;;4896395;29;20758;-56
2023/10/28 09:04:01;;;;;;;3.40;2.10;;;;;;;;;;4895791;29;20236;-55
2023/10/28 09:06:28;;;;;;;2.75;2.05;;;;;;;;;;4895053;29;20225;-56
2023/10/28 09:08:57;;;;;;;9.55;2.80;;;;;;;;;;4895873;29;20721;-53
2023/10/28 09:11:25;;;;;;;3.15;1.92;;;;;;;;;;4893507;29;20300;-55
2023/10/28 09:13:52;;;;;;;2.25;1.45;;;;;;;;;;4896376;29;20294;-52
2023/10/28 09:16:20;;;;;;;8.52;2.80;;;;;;;;;;4896043;29;20249;-54
2023/10/28 09:18:49;;;;;;;6.07;2.80;;;;;;;;;;4896022;29;20233;-51
2023/10/28 09:21:19;;;;;;;2.63;1.45;;;;;;;;;;4896197;29;20232;-50
2023/10/28 09:23:46;;;;;;;3.03;1.85;;;;;;;;;;4894860;29;20221;-51
2023/10/28 09:26:14;;;;;;;2.25;1.48;;;;;;;;;;4896044;29;20787;-52
2023/10/28 09:28:45;;;;;;;2.40;1.55;;;;;;;;;;4896068;29;20237;-54
2023/10/28 09:31:23;;;;;;;4.25;2.33;;;;;;;;;;4895281;29;20237;-53
2023/10/28 09:33:51;;;;;;;6.03;2.53;;;;;;;;;;4896582;29;20291;-50
2023/10/28 09:36:18;;;;;;;5.22;2.75;;;;;;;;;;4896216;29;20205;-50
2023/10/28 09:38:47;;;;;;;3.13;2.10;;;;;;;;;;4896364;29;20209;-53
2023/10/28 09:41:15;;;;;;;5.50;2.90;;;;;;;;;;4896220;29;20615;-51
2023/10/28 09:43:44;;;;;;;4.32;2.80;;;;;;;;;;4895456;29;20212;-54
2023/10/28 09:46:15;;;;;;;10.77;3.58;;;;;;;;;;4895102;29;20210;-56
2023/10/28 09:48:45;;;;;;;4.50;2.47;;;;;;;;;;4894823;29;20198;-50
2023/10/28 09:51:14;;;;;;;2.45;1.60;;;;;;;;;;4895358;29;20252;-50
2023/10/28 09:53:43;;;;;;;4.60;1.95;;;;;;;;;;4895053;29;20245;-50
2023/10/28 09:56:13;;;;;;;2.88;1.90;;;;;;;;;;4896248;29;20202;-52
2023/10/28 09:58:42;;;;;;;2.60;1.83;;;;;;;;;;4894908;29;20214;-57
2023/10/28 10:01:48;;;;;;;3.20;1.95;;;;;;;;;;4894683;29;20201;-53
2023/10/28 10:04:40;;;;;;;3.15;2.08;;;;;;;;;;4893898;29;20197;-52
2023/10/28 10:07:09;;;;;;;3.10;1.77;;;;;;;;;;4897909;29;20532;-52
2023/10/28 10:09:43;;;;;;;4.03;2.15;;;;;;;;;;4898695;29;20201;-56
2023/10/28 10:12:11;;;;;;;6.30;3.53;;;;;;;;;;4896658;29;20220;-54
2023/10/28 10:14:45;;;;;;;3.25;2.08;;;;;;;;;;4899053;29;20204;-54
2023/10/28 10:17:40;;;;;;;3.75;2.00;;;;;;;;;;4898126;29;20644;-54
2023/10/28 10:20:09;;;;;;;1.67;1.40;;;;;;;;;;4897885;29;20201;-55
2023/10/28 10:22:41;;;;;;;4.93;2.45;;;;;;;;;;4898165;29;20202;-54
2023/10/28 10:25:09;;;;;;;3.55;1.90;;;;;;;;;;4899516;29;20793;-52
2023/10/28 10:27:44;;;;;;;3.97;2.45;;;;;;;;;;4897998;29;20213;-53
2023/10/28 10:30:12;;;;;;;3.97;2.50;;;;;;;;;;4898237;29;20197;-54
2023/10/28 10:32:50;;;;;;;6.88;3.05;;;;;;;;;;4898624;29;20351;-54
2023/10/28 10:35:28;;;;;;;4.82;2.17;;;;;;;;;;4898447;29;20655;-54
2023/10/28 10:38:09;;;;;;;3.60;1.95;;;;;;;;;;4897278;29;20261;-54
2023/10/28 10:40:41;;;;;;;3.35;2.22;;;;;;;;;;4898564;29;20269;-51
2023/10/28 10:43:10;;;;;;;2.33;1.90;;;;;;;;;;4898734;29;20734;-54
2023/10/28 10:45:37;;;;;;;3.55;1.90;;;;;;;;;;4899156;29;20663;-51
2023/10/28 10:48:07;;;;;;;4.10;2.05;;;;;;;;;;4898342;29;20213;-50
2023/10/28 10:50:35;;;;;;;6.53;2.47;;;;;;;;;;4899347;29;20201;-50
2023/10/28 10:53:03;;;;;;;3.38;2.25;;;;;;;;;;4892848;29;20289;-50
2023/10/28 10:55:31;;;;;;;2.45;1.70;;;;;;;;;;4890498;29;20463;-51
2023/10/28 10:57:58;;;;;;;3.03;1.88;;;;;;;;;;4898025;29;20241;-51
2023/10/28 11:00:26;;;;;;;2.90;1.75;;;;;;;;;;4900865;29;20324;-50
2023/10/28 11:02:58;;;;;;;2.58;1.63;;;;;;;;;;4907047;29;20217;-54
2023/10/28 11:05:30;;;;;;;3.55;2.00;;;;;;;;;;4890544;29;20245;-54
2023/10/28 11:07:57;;;;;;;3.25;2.30;;;;;;;;;;4908748;29;20224;-52
2023/10/28 11:10:25;;;;;;;3.92;2.20;;;;;;;;;;4893867;29;20264;-56
2023/10/28 11:12:53;;;;;;;4.78;2.30;;;;;;;;;;4897223;29;20237;-53
2023/10/28 11:15:21;;;;;;;2.47;2.20;;;;;;;;;;4897439;29;20660;-54
2023/10/28 11:17:50;;;;;;;2.85;1.92;;;;;;;;;;4898087;29;20252;-49
2023/10/28 11:20:21;;;;;;;3.03;1.80;;;;;;;;;;4897774;29;20233;-54
2023/10/28 11:22:49;;;;;;;4.18;2.22;;;;;;;;;;4895334;29;20229;-51
2023/10/28 11:25:17;;;;;;;2.97;2.13;;;;;;;;;;4897140;29;20274;-53
2023/10/28 11:27:46;;;;;;;3.53;2.03;;;;;;;;;;4897943;29;20639;-50
2023/10/28 11:30:13;;;;;;;2.13;1.70;;;;;;;;;;4897623;29;20221;-54
2023/10/28 11:32:41;;;;;;;2.28;1.67;;;;;;;;;;4897383;29;20236;-53
2023/10/28 11:35:11;;;;;;;4.30;1.60;;;;;;;;;;4894765;29;20225;-57
2023/10/28 11:37:41;;;;;;;2.72;1.98;;;;;;;;;;4895317;29;20574;-57
2023/10/28 11:40:10;;;;;;;3.22;2.05;;;;;;;;;;4893729;29;20233;-54
2023/10/28 11:42:37;;;;;;;2.67;1.70;;;;;;;;;;4896376;29;20236;-56
2023/10/28 11:45:06;;;;;;;2.80;1.67;;;;;;;;;;4896021;29;20225;-53
2023/10/28 11:47:33;;;;;;;3.80;2.05;;;;;;;;;;4896832;29;20241;-56
2023/10/28 11:50:00;;;;;;;2.30;1.73;;;;;;;;;;4896612;29;20293;-55
2023/10/28 11:52:28;;;;;;;3.63;2.25;;;;;;;;;;4897004;29;20305;-57
2023/10/28 11:54:55;;;;;;;3.13;2.00;;;;;;;;;;4896018;29;20237;-57
2023/10/28 11:57:23;;;;;;;3.28;2.22;;;;;;;;;;4896941;29;20233;-57
2023/10/28 11:59:52;;;;;;;3.88;2.25;;;;;;;;;;4896581;29;20703;-56
2023/10/28 12:02:20;;;;;;;3.15;2.08;;;;;;;;;;4894922;29;20237;-55
2023/10/28 12:04:47;;;;;;;2.88;2.00;;;;;;;;;;4896713;29;20225;-55
2023/10/28 12:07:14;;;;;;;3.38;2.15;;;;;;;;;;4896834;29;20234;-57
2023/10/28 12:09:41;;;;;;;2.80;1.83;;;;;;;;;;4896749;29;20232;-55
2023/10/28 12:12:09;;;;;;;3.13;2.17;;;;;;;;;;4895674;29;20577;-57
2023/10/28 12:14:36;;;;;;;2.45;1.73;;;;;;;;;;4895461;29;20320;-55
2023/10/28 12:17:06;;;;;;;4.10;1.98;;;;;;;;;;4895670;29;20241;-52
2023/10/28 12:19:33;;;;;;;2.72;1.77;;;;;;;;;;4896982;29;20260;-55
2023/10/28 12:22:00;;;;;;;3.92;2.10;;;;;;;;;;4896167;29;20236;-54
2023/10/28 12:24:27;;;;;;;3.75;2.03;;;;;;;;;;4883316;29;20225;-53
2023/10/28 12:26:56;;;;;;;3.15;2.10;;;;;;;;;;4890650;29;20245;-56
2023/10/28 12:29:23;;;;;;;2.03;1.67;;;;;;;;;;4877361;29;20238;-52
2023/10/28 12:31:51;;;;;;;3.40;1.92;;;;;;;;;;4886923;29;20478;-51
2023/10/28 12:34:20;;;;;;;2.75;1.90;;;;;;;;;;4896484;29;20334;-51
2023/10/28 12:36:48;;;;;;;2.72;2.10;;;;;;;;;;4896132;29;20258;-53
2023/10/28 12:39:16;;;;;;;4.55;2.03;;;;;;;;;;4896575;29;20240;-54
2023/10/28 12:41:46;;;;;;;2.38;1.88;;;;;;;;;;4894422;29;20229;-53
2023/10/28 12:44:13;;;;;;;2.40;1.80;;;;;;;;;;4895417;29;20876;-56
2023/10/28 12:46:40;;;;;;;2.70;2.00;;;;;;;;;;4896041;29;20823;-57
2023/10/28 12:49:07;;;;;;;3.25;2.30;;;;;;;;;;4895595;29;20319;-49
2023/10/28 12:51:34;;;;;;;4.35;2.10;;;;;;;;;;4896410;29;20284;-54
2023/10/28 12:54:04;;;;;;;8.80;4.30;;;;;;;;;;4895530;29;20249;-58
2023/10/28 12:56:31;;;;;;;7.20;3.88;;;;;;;;;;4896344;29;20232;-57
2023/10/28 12:58:58;;;;;;;5.97;2.90;;;;;;;;;;4896352;29;20960;-58
2023/10/28 13:01:26;;;;;;;11.75;3.08;;;;;;;;;;4896334;29;20237;-57
2023/10/28 13:03:56;;;;;;;10.63;3.63;;;;;;;;;;4896149;29;20790;-57
2023/10/28 13:06:24;;;;;;;6.95;3.45;;;;;;;;;;4847449;29;20229;-58
2023/10/28 13:08:51;;;;;;;7.90;3.55;;;;;;;;;;4875911;29;20320;-58
2023/10/28 13:11:19;;;;;;;3.95;2.45;;;;;;;;;;4876221;29;20234;-58
2023/10/28 13:13:46;;;;;;;2.95;2.15;;;;;;;;;;4876000;29;20245;-58
2023/10/28 13:16:13;;;;;;;3.42;2.17;;;;;;;;;;4876183;29;20241;-58
2023/10/28 13:18:41;;;;;;;3.63;2.22;;;;;;;;;;4876263;29;20629;-58
2023/10/28 13:21:09;;;;;;;5.07;2.60;;;;;;;;;;4888256;29;20286;-58
2023/10/28 13:23:36;;;;;;;14.75;8.50;;;;;;;;;;4893350;29;20233;-57
2023/10/28 13:26:09;;;;;;;5.20;3.22;;;;;;;;;;4895248;29;20589;-58
2023/10/28 13:28:37;;;;;;;18.20;6.50;;;;;;;;;;4893939;29;20236;-58
2023/10/28 13:31:05;;;;;;;6.93;3.58;;;;;;;;;;4895548;29;20787;-58
2023/10/28 13:33:32;;;;;;;5.53;3.38;;;;;;;;;;4895373;29;20337;-58
2023/10/28 13:36:02;;;;;;;5.47;2.75;;;;;;;;;;4895809;29;20217;-59
2023/10/28 13:38:29;;;;;;;7.03;4.20;;;;;;;;;;4895409;29;20281;-58
2023/10/28 13:40:57;;;;;;;5.00;2.88;;;;;;;;;;4896767;29;20236;-57
2023/10/28 13:43:24;;;;;;;4.43;2.78;;;;;;;;;;4898524;29;20264;-58
2023/10/28 13:45:52;;;;;;;5.45;3.25;;;;;;;;;;4899472;29;20221;-58
2023/10/28 13:48:20;;;;;;;5.93;2.88;;;;;;;;;;4899413;29;20244;-58
2023/10/28 13:50:48;;;;;;;64.20;31.55;;;;;;;;;;4898676;29;20583;-57
2023/10/28 13:53:15;;;;;;;235.40;55.10;;;;;;;;;;4898486;29;20293;-59
2023/10/28 13:55:42;;;;;;;55.47;13.13;;;;;;;;;;4889999;29;20229;-58
2023/10/28 13:58:09;;;;;;;59.28;15.70;;;;;;;;;;4880330;29;20645;-59
2023/10/28 14:00:38;;;;;;;22.10;8.45;;;;;;;;;;4892997;29;20241;-57
2023/10/28 14:03:05;;;;;;;27.25;8.93;;;;;;;;;;4899430;29;20229;-58
2023/10/28 14:05:33;;;;;;;10.60;5.13;;;;;;;;;;4886137;29;20229;-58
2023/10/28 14:08:00;;;;;;;47.65;16.73;;;;;;;;;;4891796;29;20248;-57
2023/10/28 14:10:28;;;;;;;37.85;12.30;;;;;;;;;;4891574;29;20241;-58
2023/10/28 14:12:55;;;;;;;153.27;34.92;;;;;;;;;;4890964;29;20597;-59
2023/10/28 14:15:22;;;;;;;62.13;15.82;;;;;;;;;;4893207;29;20264;-57
2023/10/28 14:17:50;;;;;;;67.10;19.30;;;;;;;;;;4902587;29;20586;-58
2023/10/28 14:20:18;;;;;;;109.28;28.42;;;;;;;;;;4905837;29;20228;-58
2023/10/28 14:22:45;;;;;;;78.50;21.33;;;;;;;;;;4900515;29;20294;-58
2023/10/28 14:25:12;;;;;;;60.22;17.58;;;;;;;;;;4897635;29;20236;-57
2023/10/28 14:27:42;;;;;;;73.38;21.92;;;;;;;;;;4899390;29;20233;-59
2023/10/28 14:30:13;;;;;;;133.27;33.95;;;;;;;;;;4898841;29;20225;-57
2023/10/28 14:32:40;;;;;;;52.30;17.42;;;;;;;;;;4899251;29;20221;-58
2023/10/28 14:35:09;;;;;;;76.80;18.13;;;;;;;;;;4898618;29;20244;-58
2023/10/28 14:37:36;;;;;;;130.93;26.70;;;;;;;;;;4897866;29;20236;-58
2023/10/28 14:40:05;;;;;;;57.35;15.23;;;;;;;;;;4898738;29;20237;-58
2023/10/28 14:42:36;;;;;;;37.63;12.68;;;;;;;;;;4898630;29;20225;-59
2023/10/28 14:45:05;;;;;;;44.30;13.27;;;;;;;;;;4898741;29;20600;-58